Time;durP1;ratioP1;P1;durP2;ratioP2;P2;SDS_P1;SDS_P2;PMS_P1;PMS_P2;Temp;Humidity;BMP_temperature;BMP_pressure;BME280_temperature;BME280_humidity;BME280_pressure;Samples;Min_cycle;Max_cycle;Signal;HPM_P1;HPM_P2
2024/02/27 00:00:28;;;;;;;3.00;2.80;;;;;;;;;;5101551;28;20027;-65
2024/02/27 00:02:54;;;;;;;4.97;3.35;;;;;;;;;;5098595;28;20030;-65
2024/02/27 00:05:20;;;;;;;5.55;3.22;;;;;;;;;;5077296;28;20035;-65
2024/02/27 00:07:46;;;;;;;3.65;3.30;;;;;;;;;;5084767;28;20031;-65
2024/02/27 00:10:14;;;;;;;4.22;3.15;;;;;;;;;;5100531;28;20028;-65
2024/02/27 00:12:40;;;;;;;5.68;3.05;;;;;;;;;;5101356;28;20031;-65
2024/02/27 00:15:07;;;;;;;4.18;3.35;;;;;;;;;;5095216;28;20102;-65
2024/02/27 00:17:34;;;;;;;6.22;2.50;;;;;;;;;;5080805;28;20028;-66
2024/02/27 00:20:01;;;;;;;5.32;2.78;;;;;;;;;;5090360;27;20038;-65
2024/02/27 00:22:27;;;;;;;2.95;2.65;;;;;;;;;;5099747;28;20227;-65
2024/02/27 00:24:53;;;;;;;2.47;2.28;;;;;;;;;;5101644;28;20167;-68
2024/02/27 00:27:19;;;;;;;3.03;2.60;;;;;;;;;;5096798;28;20028;-65
2024/02/27 00:29:45;;;;;;;4.05;2.97;;;;;;;;;;5097087;28;20035;-65
2024/02/27 00:32:12;;;;;;;4.65;2.55;;;;;;;;;;5096144;28;20525;-65
2024/02/27 00:34:38;;;;;;;3.05;2.72;;;;;;;;;;5095180;28;20024;-65
2024/02/27 00:37:05;;;;;;;4.18;2.72;;;;;;;;;;5100110;28;20046;-65
2024/02/27 00:39:31;;;;;;;3.25;2.60;;;;;;;;;;5081405;28;20027;-66
2024/02/27 00:41:58;;;;;;;2.90;2.58;;;;;;;;;;5102108;28;20039;-65
2024/02/27 00:44:25;;;;;;;6.25;2.33;;;;;;;;;;5102893;28;20067;-65
2024/02/27 00:46:51;;;;;;;2.50;2.30;;;;;;;;;;5085594;28;20106;-65
2024/02/27 00:49:17;;;;;;;2.28;2.08;;;;;;;;;;5096536;28;20114;-65
2024/02/27 00:51:43;;;;;;;2.58;2.38;;;;;;;;;;5094834;28;20111;-65
2024/02/27 00:54:10;;;;;;;3.80;2.25;;;;;;;;;;5093786;28;20506;-65
2024/02/27 00:56:36;;;;;;;2.80;2.25;;;;;;;;;;5097297;27;20024;-64
2024/02/27 00:59:02;;;;;;;3.45;2.22;;;;;;;;;;5103666;28;20045;-65
2024/02/27 01:01:29;;;;;;;7.75;2.13;;;;;;;;;;5098497;28;20055;-65
2024/02/27 01:03:55;;;;;;;2.67;2.42;;;;;;;;;;5079554;28;20035;-64
2024/02/27 01:06:21;;;;;;;4.00;2.53;;;;;;;;;;5092914;28;20028;-65
2024/02/27 01:08:47;;;;;;;2.58;2.38;;;;;;;;;;5097666;27;20035;-65
2024/02/27 01:11:13;;;;;;;4.43;2.50;;;;;;;;;;5095763;27;20545;-66
2024/02/27 01:13:39;;;;;;;2.90;2.28;;;;;;;;;;5092367;28;20028;-66
2024/02/27 01:16:06;;;;;;;3.22;2.53;;;;;;;;;;5078881;28;20020;-65
2024/02/27 01:18:32;;;;;;;2.60;2.40;;;;;;;;;;5097590;28;20437;-65
2024/02/27 01:21:00;;;;;;;4.00;2.53;;;;;;;;;;5079357;28;20036;-65
2024/02/27 01:23:27;;;;;;;4.60;2.60;;;;;;;;;;5105083;28;20148;-65
2024/02/27 01:25:53;;;;;;;4.38;2.83;;;;;;;;;;5099736;28;20500;-65
2024/02/27 01:28:19;;;;;;;2.72;2.22;;;;;;;;;;5073927;28;20431;-65
2024/02/27 01:30:46;;;;;;;7.30;2.63;;;;;;;;;;5095560;28;20080;-66
2024/02/27 01:33:12;;;;;;;2.85;2.45;;;;;;;;;;5096499;28;20039;-66
2024/02/27 01:35:38;;;;;;;15.32;3.42;;;;;;;;;;5099522;28;20111;-65
2024/02/27 01:38:04;;;;;;;3.03;2.20;;;;;;;;;;5104556;28;20039;-65
2024/02/27 01:40:30;;;;;;;2.60;2.40;;;;;;;;;;5095403;28;20027;-64
2024/02/27 01:42:57;;;;;;;3.90;2.28;;;;;;;;;;5095967;28;20024;-65
2024/02/27 01:45:23;;;;;;;3.42;2.47;;;;;;;;;;5099401;28;20055;-65
2024/02/27 01:47:52;;;;;;;2.92;2.67;;;;;;;;;;5096654;28;20043;-65
2024/02/27 01:50:19;;;;;;;2.45;2.30;;;;;;;;;;5101111;27;20483;-65
2024/02/27 01:52:46;;;;;;;2.75;2.47;;;;;;;;;;5094397;28;20016;-65
2024/02/27 01:55:13;;;;;;;2.20;2.00;;;;;;;;;;5072618;28;20111;-65
2024/02/27 01:57:40;;;;;;;2.10;1.90;;;;;;;;;;5094510;27;20096;-65
2024/02/27 02:00:09;;;;;;;3.25;1.98;;;;;;;;;;5094595;28;20036;-65
2024/02/27 02:02:38;;;;;;;4.13;2.58;;;;;;;;;;5100771;28;20059;-65
2024/02/27 02:05:08;;;;;;;4.10;2.45;;;;;;;;;;5073247;27;20031;-65
2024/02/27 02:07:35;;;;;;;2.92;2.38;;;;;;;;;;5094447;28;20053;-65
2024/02/27 02:10:01;;;;;;;2.05;1.95;;;;;;;;;;5094895;28;20030;-65
2024/02/27 02:12:28;;;;;;;2.67;2.22;;;;;;;;;;5085263;28;20035;-65
2024/02/27 02:14:54;;;;;;;3.90;2.13;;;;;;;;;;5083667;28;20067;-65
2024/02/27 02:17:21;;;;;;;2.55;1.90;;;;;;;;;;5096628;28;20390;-65
2024/02/27 02:19:47;;;;;;;4.25;2.65;;;;;;;;;;5096932;28;20028;-65
2024/02/27 02:22:13;;;;;;;2.90;2.60;;;;;;;;;;5091125;28;20039;-64
2024/02/27 02:24:39;;;;;;;4.20;2.50;;;;;;;;;;5079517;28;20023;-65
2024/02/27 02:27:05;;;;;;;6.45;2.42;;;;;;;;;;5101703;28;20057;-64
2024/02/27 02:29:32;;;;;;;2.97;2.53;;;;;;;;;;5095209;28;20482;-65
2024/02/27 02:31:58;;;;;;;2.55;2.35;;;;;;;;;;5099758;28;20059;-65
2024/02/27 02:34:24;;;;;;;2.72;2.53;;;;;;;;;;5094523;28;20023;-68
2024/02/27 02:36:50;;;;;;;3.60;2.55;;;;;;;;;;5097295;28;20051;-67
2024/02/27 02:39:16;;;;;;;6.70;2.47;;;;;;;;;;5094010;28;20063;-65
2024/02/27 02:41:42;;;;;;;3.03;2.78;;;;;;;;;;5096255;28;20480;-65
2024/02/27 02:44:08;;;;;;;8.05;2.47;;;;;;;;;;5094560;28;20084;-65
2024/02/27 02:46:36;;;;;;;2.28;1.85;;;;;;;;;;5078676;28;20031;-65
2024/02/27 02:49:02;;;;;;;2.80;2.20;;;;;;;;;;5091510;28;20042;-65
2024/02/27 02:51:31;;;;;;;3.08;2.20;;;;;;;;;;5098999;28;20502;-65
2024/02/27 02:53:58;;;;;;;2.42;1.95;;;;;;;;;;5097934;28;20086;-65
2024/02/27 02:56:24;;;;;;;8.93;2.28;;;;;;;;;;5102490;28;20028;-65
2024/02/27 02:58:50;;;;;;;1.83;1.73;;;;;;;;;;5083524;28;20024;-65
2024/02/27 03:01:16;;;;;;;1.60;1.50;;;;;;;;;;5080504;28;20028;-65
2024/02/27 03:03:43;;;;;;;2.63;2.42;;;;;;;;;;5095972;28;20028;-65
2024/02/27 03:06:09;;;;;;;2.22;2.00;;;;;;;;;;5092017;28;20046;-65
2024/02/27 03:08:35;;;;;;;2.58;2.25;;;;;;;;;;5091640;28;20028;-65
2024/02/27 03:11:01;;;;;;;2.30;2.08;;;;;;;;;;5081146;28;20452;-65
2024/02/27 03:13:27;;;;;;;1.73;1.63;;;;;;;;;;5093010;28;20032;-65
2024/02/27 03:15:54;;;;;;;1.70;1.60;;;;;;;;;;5096847;28;20015;-64
2024/02/27 03:18:20;;;;;;;7.38;1.98;;;;;;;;;;5101646;28;20036;-65
2024/02/27 03:20:46;;;;;;;5.03;2.63;;;;;;;;;;5093452;28;20063;-65
2024/02/27 03:23:12;;;;;;;3.35;1.65;;;;;;;;;;5095123;28;20384;-65
2024/02/27 03:25:39;;;;;;;2.38;2.05;;;;;;;;;;5097511;28;20024;-65
2024/02/27 03:28:05;;;;;;;3.38;1.80;;;;;;;;;;5095500;28;20027;-66
2024/02/27 03:30:32;;;;;;;2.35;1.70;;;;;;;;;;5080271;28;20498;-64
2024/02/27 03:32:58;;;;;;;1.67;1.58;;;;;;;;;;5101912;28;20165;-65
2024/02/27 03:35:24;;;;;;;3.53;1.95;;;;;;;;;;5097840;28;20473;-65
2024/02/27 03:37:50;;;;;;;1.75;1.65;;;;;;;;;;5096160;28;20031;-65
2024/02/27 03:40:16;;;;;;;2.45;1.60;;;;;;;;;;5102535;28;20028;-65
2024/02/27 03:42:43;;;;;;;1.55;1.45;;;;;;;;;;5095638;28;20481;-65
2024/02/27 03:45:10;;;;;;;1.55;1.45;;;;;;;;;;5098985;28;20122;-65
2024/02/27 03:47:36;;;;;;;2.25;1.70;;;;;;;;;;5096593;28;20088;-65
2024/02/27 03:50:02;;;;;;;2.83;1.80;;;;;;;;;;5098756;27;20020;-65
2024/02/27 03:52:30;;;;;;;4.85;1.50;;;;;;;;;;5091543;28;20130;-65
2024/02/27 03:54:56;;;;;;;1.60;1.50;;;;;;;;;;5103335;28;20031;-65
2024/02/27 03:57:23;;;;;;;5.13;2.10;;;;;;;;;;5101853;28;20028;-65
2024/02/27 03:59:49;;;;;;;1.20;1.20;;;;;;;;;;5091873;28;20466;-65
2024/02/27 04:02:16;;;;;;;1.42;1.42;;;;;;;;;;5107599;27;20055;-65
2024/02/27 04:04:42;;;;;;;1.83;1.73;;;;;;;;;;5102816;27;20051;-65
2024/02/27 04:07:08;;;;;;;2.63;1.80;;;;;;;;;;5100784;27;20031;-65
2024/02/27 04:09:35;;;;;;;1.83;1.55;;;;;;;;;;5101934;27;20085;-67
2024/02/27 04:12:01;;;;;;;1.70;1.60;;;;;;;;;;5095379;27;20028;-66
2024/02/27 04:14:27;;;;;;;4.57;1.50;;;;;;;;;;5081335;28;20331;-64
2024/02/27 04:16:53;;;;;;;1.27;1.27;;;;;;;;;;5080328;28;20044;-65
2024/02/27 04:19:23;;;;;;;2.03;1.63;;;;;;;;;;5092044;28;20027;-65
2024/02/27 04:21:49;;;;;;;1.73;1.63;;;;;;;;;;5094921;27;20028;-66
2024/02/27 04:24:15;;;;;;;2.90;1.40;;;;;;;;;;5089280;28;20447;-66
2024/02/27 04:26:41;;;;;;;4.88;1.73;;;;;;;;;;5081437;28;20481;-69
2024/02/27 04:29:07;;;;;;;5.68;2.20;;;;;;;;;;5085034;28;20539;-65
2024/02/27 04:31:34;;;;;;;2.15;1.52;;;;;;;;;;5098028;28;20521;-67
2024/02/27 04:34:00;;;;;;;1.30;1.30;;;;;;;;;;5101359;27;20115;-65
2024/02/27 04:36:27;;;;;;;1.60;1.50;;;;;;;;;;5096076;28;20488;-65
2024/02/27 04:38:53;;;;;;;4.95;1.83;;;;;;;;;;5098729;27;20026;-66
2024/02/27 04:41:19;;;;;;;5.38;2.00;;;;;;;;;;5104490;28;20492;-66
2024/02/27 04:43:46;;;;;;;2.47;1.70;;;;;;;;;;5093162;28;20024;-65
2024/02/27 04:46:12;;;;;;;1.08;1.08;;;;;;;;;;5097805;28;20785;-65
2024/02/27 04:48:38;;;;;;;2.22;1.65;;;;;;;;;;5097857;28;20031;-65
2024/02/27 04:51:07;;;;;;;2.40;1.40;;;;;;;;;;5099618;28;20267;-65
2024/02/27 04:53:33;;;;;;;1.40;1.30;;;;;;;;;;5094876;28;20502;-66
2024/02/27 04:55:59;;;;;;;9.38;2.17;;;;;;;;;;5079455;28;20031;-65
2024/02/27 04:58:25;;;;;;;1.45;1.35;;;;;;;;;;5091182;28;20077;-65
2024/02/27 05:00:52;;;;;;;2.83;1.77;;;;;;;;;;5078540;28;20084;-66
2024/02/27 05:03:18;;;;;;;1.38;1.38;;;;;;;;;;5093643;28;20077;-66
2024/02/27 05:05:44;;;;;;;2.05;1.70;;;;;;;;;;5100937;28;20477;-65
2024/02/27 05:08:11;;;;;;;2.00;1.85;;;;;;;;;;5101842;28;20042;-65
2024/02/27 05:10:37;;;;;;;1.33;1.33;;;;;;;;;;5090661;28;20454;-65
2024/02/27 05:13:03;;;;;;;1.45;1.38;;;;;;;;;;5095968;27;20028;-65
2024/02/27 05:15:30;;;;;;;3.55;1.95;;;;;;;;;;5095017;28;20238;-66
2024/02/27 05:17:57;;;;;;;1.40;1.30;;;;;;;;;;5098653;28;20205;-65
2024/02/27 05:20:23;;;;;;;1.20;1.20;;;;;;;;;;5103019;28;20031;-65
2024/02/27 05:22:49;;;;;;;1.85;1.40;;;;;;;;;;5097209;28;20019;-65
2024/02/27 05:25:15;;;;;;;1.50;1.40;;;;;;;;;;5097395;28;20104;-65
2024/02/27 05:27:41;;;;;;;1.48;1.48;;;;;;;;;;5094212;28;20502;-66
2024/02/27 05:30:08;;;;;;;2.83;1.73;;;;;;;;;;5093997;28;20059;-66
2024/02/27 05:32:34;;;;;;;2.00;1.50;;;;;;;;;;5098669;28;20472;-65
2024/02/27 05:35:00;;;;;;;1.77;1.50;;;;;;;;;;5103753;27;20480;-65
2024/02/27 05:37:26;;;;;;;1.75;1.65;;;;;;;;;;5095271;28;20206;-65
2024/02/27 05:39:52;;;;;;;1.52;1.42;;;;;;;;;;5083597;28;21295;-65
2024/02/27 05:42:19;;;;;;;1.58;1.48;;;;;;;;;;5091739;28;20032;-65
2024/02/27 05:44:45;;;;;;;1.50;1.40;;;;;;;;;;5097346;28;20450;-65
2024/02/27 05:47:11;;;;;;;1.60;1.15;;;;;;;;;;5093858;28;20480;-65
2024/02/27 05:49:37;;;;;;;3.13;1.92;;;;;;;;;;5090661;28;20039;-66
2024/02/27 05:52:04;;;;;;;1.23;1.23;;;;;;;;;;5092946;27;20435;-65
2024/02/27 05:54:30;;;;;;;1.70;1.60;;;;;;;;;;5092492;28;20136;-65
2024/02/27 05:56:56;;;;;;;2.13;1.92;;;;;;;;;;5080212;28;20146;-65
2024/02/27 05:59:22;;;;;;;3.00;1.85;;;;;;;;;;5091469;28;20664;-66
2024/02/27 06:01:48;;;;;;;1.88;1.73;;;;;;;;;;5098632;28;20027;-67
2024/02/27 06:04:14;;;;;;;14.77;1.85;;;;;;;;;;5083915;28;20023;-65
2024/02/27 06:06:40;;;;;;;1.40;1.40;;;;;;;;;;5081750;28;20043;-65
2024/02/27 06:09:07;;;;;;;3.05;1.45;;;;;;;;;;5090959;28;20497;-65
2024/02/27 06:11:35;;;;;;;1.38;1.33;;;;;;;;;;5098993;28;20027;-65
2024/02/27 06:14:02;;;;;;;1.90;1.60;;;;;;;;;;5096059;28;20035;-65
2024/02/27 06:16:28;;;;;;;4.20;1.88;;;;;;;;;;5094946;28;20046;-66
2024/02/27 06:18:55;;;;;;;1.80;1.70;;;;;;;;;;5096286;28;20059;-64
2024/02/27 06:24:06;;;;;;;3.35;2.10;;;;;;;;;;5094488;28;20836;-69
2024/02/27 06:26:32;;;;;;;2.88;1.25;;;;;;;;;;5086678;28;20023;-66
2024/02/27 06:28:58;;;;;;;2.58;1.55;;;;;;;;;;5093528;28;20028;-65
2024/02/27 06:31:25;;;;;;;1.20;1.20;;;;;;;;;;5079631;28;20030;-65
2024/02/27 06:33:51;;;;;;;1.73;1.40;;;;;;;;;;5096667;28;20443;-65
2024/02/27 06:36:17;;;;;;;6.18;1.65;;;;;;;;;;5097014;28;20518;-68
2024/02/27 06:38:44;;;;;;;2.92;1.13;;;;;;;;;;5092266;28;20086;-65
2024/02/27 06:41:10;;;;;;;1.60;1.50;;;;;;;;;;5080316;28;20120;-65
2024/02/27 06:43:36;;;;;;;1.10;1.10;;;;;;;;;;5091926;28;20435;-66
2024/02/27 06:46:03;;;;;;;1.45;1.38;;;;;;;;;;5093981;28;20038;-64
2024/02/27 06:48:30;;;;;;;1.30;1.30;;;;;;;;;;5100329;28;20472;-64
2024/02/27 06:50:56;;;;;;;1.58;1.48;;;;;;;;;;5093894;28;20405;-65
2024/02/27 06:53:23;;;;;;;1.33;1.33;;;;;;;;;;5080306;28;20103;-65
2024/02/27 06:55:49;;;;;;;2.83;1.67;;;;;;;;;;5099430;28;20030;-64
2024/02/27 06:58:16;;;;;;;9.68;1.80;;;;;;;;;;5101744;28;20027;-65
2024/02/27 07:00:42;;;;;;;1.95;1.73;;;;;;;;;;5087111;28;20043;-67
2024/02/27 07:03:09;;;;;;;4.32;1.40;;;;;;;;;;5081751;28;20127;-66
2024/02/27 07:05:35;;;;;;;1.40;1.33;;;;;;;;;;5098271;28;20023;-65
2024/02/27 07:08:01;;;;;;;1.55;1.48;;;;;;;;;;5095456;28;20549;-66
2024/02/27 07:10:27;;;;;;;1.20;1.20;;;;;;;;;;5100287;28;20069;-65
2024/02/27 07:12:53;;;;;;;15.38;1.80;;;;;;;;;;5099997;28;20024;-65
2024/02/27 07:15:20;;;;;;;2.30;1.90;;;;;;;;;;5107762;28;20031;-67
2024/02/27 07:17:46;;;;;;;1.70;1.60;;;;;;;;;;5089783;28;20036;-65
2024/02/27 07:20:13;;;;;;;1.85;1.70;;;;;;;;;;5109869;28;20024;-64
2024/02/27 07:22:42;;;;;;;6.68;2.17;;;;;;;;;;5078639;28;20024;-65
2024/02/27 07:25:09;;;;;;;1.70;1.23;;;;;;;;;;5091316;28;20031;-65
2024/02/27 07:27:36;;;;;;;1.52;1.50;;;;;;;;;;5110709;28;20054;-65
2024/02/27 07:30:04;;;;;;;3.15;1.90;;;;;;;;;;5111849;28;20497;-65
2024/02/27 07:32:30;;;;;;;2.28;1.60;;;;;;;;;;5116705;27;20484;-66
2024/02/27 07:34:56;;;;;;;3.67;1.60;;;;;;;;;;5099198;28;20043;-65
2024/02/27 07:37:22;;;;;;;1.65;1.55;;;;;;;;;;5097621;28;20413;-65
2024/02/27 07:39:48;;;;;;;1.63;1.50;;;;;;;;;;5085085;28;20452;-66
2024/02/27 07:42:14;;;;;;;1.33;1.30;;;;;;;;;;5099725;28;20035;-66
2024/02/27 07:44:41;;;;;;;5.60;1.67;;;;;;;;;;5107327;27;20036;-68
2024/02/27 07:47:07;;;;;;;1.05;1.05;;;;;;;;;;5102021;27;20586;-65
2024/02/27 07:49:34;;;;;;;2.72;1.65;;;;;;;;;;5097202;28;20077;-65
2024/02/27 07:52:00;;;;;;;5.57;1.60;;;;;;;;;;5106879;28;20571;-65
2024/02/27 07:54:27;;;;;;;8.43;2.95;;;;;;;;;;5069937;28;20361;-66
2024/02/27 07:56:53;;;;;;;3.25;1.40;;;;;;;;;;5104104;28;20488;-66
2024/02/27 07:59:20;;;;;;;1.88;1.77;;;;;;;;;;5106073;28;20040;-66
2024/02/27 08:01:46;;;;;;;2.10;1.25;;;;;;;;;;5102348;28;20145;-66
2024/02/27 08:04:12;;;;;;;1.55;1.42;;;;;;;;;;5084606;28;20028;-66
2024/02/27 08:06:39;;;;;;;3.03;1.85;;;;;;;;;;5096012;27;20042;-67
2024/02/27 08:09:06;;;;;;;3.90;1.98;;;;;;;;;;5100652;28;20039;-67
2024/02/27 08:11:32;;;;;;;4.55;2.17;;;;;;;;;;5093044;28;20023;-67
2024/02/27 08:14:00;;;;;;;1.67;1.58;;;;;;;;;;5099532;28;20028;-66
2024/02/27 08:16:26;;;;;;;2.53;1.83;;;;;;;;;;5099647;27;20114;-69
2024/02/27 08:18:55;;;;;;;1.85;1.70;;;;;;;;;;5082418;28;20039;-66
2024/02/27 08:21:21;;;;;;;1.80;1.70;;;;;;;;;;5079638;28;20432;-66
2024/02/27 08:23:47;;;;;;;4.20;1.80;;;;;;;;;;5105605;28;20050;-72
2024/02/27 08:26:14;;;;;;;8.35;1.83;;;;;;;;;;5099824;27;20058;-66
2024/02/27 08:28:40;;;;;;;1.70;1.60;;;;;;;;;;5094371;28;20059;-65
2024/02/27 08:31:10;;;;;;;1.60;1.50;;;;;;;;;;5095987;28;20028;-65
2024/02/27 08:33:37;;;;;;;2.17;1.95;;;;;;;;;;5099645;28;20015;-65
2024/02/27 08:36:04;;;;;;;2.40;1.45;;;;;;;;;;5096043;28;20097;-65
2024/02/27 08:38:30;;;;;;;5.03;2.25;;;;;;;;;;5072538;28;20028;-65
2024/02/27 08:40:56;;;;;;;2.08;1.90;;;;;;;;;;5100544;28;21381;-65
2024/02/27 08:43:32;;;;;;;2.90;1.35;;;;;;;;;;5104917;28;20032;-65
2024/02/27 08:45:58;;;;;;;6.22;1.73;;;;;;;;;;5081143;28;20061;-65
2024/02/27 08:48:24;;;;;;;2.42;1.50;;;;;;;;;;5091912;28;20023;-66
2024/02/27 08:50:51;;;;;;;3.67;1.92;;;;;;;;;;5098047;28;20069;-64
2024/02/27 08:53:17;;;;;;;3.38;1.60;;;;;;;;;;5094855;28;20024;-65
2024/02/27 08:55:43;;;;;;;4.45;1.80;;;;;;;;;;5082787;28;20031;-65
2024/02/27 08:58:09;;;;;;;1.58;1.48;;;;;;;;;;5101273;27;20016;-65
2024/02/27 09:00:36;;;;;;;1.10;1.10;;;;;;;;;;5099008;27;20753;-66
2024/02/27 09:03:03;;;;;;;2.05;1.70;;;;;;;;;;5103755;27;20102;-68
2024/02/27 09:05:29;;;;;;;3.85;1.98;;;;;;;;;;5090169;28;20027;-68
2024/02/27 09:07:55;;;;;;;2.55;2.40;;;;;;;;;;5102533;27;20534;-69
2024/02/27 09:10:21;;;;;;;1.65;1.55;;;;;;;;;;5098840;28;20570;-68
2024/02/27 09:12:48;;;;;;;2.10;1.90;;;;;;;;;;5099380;27;20046;-69
2024/02/27 09:15:15;;;;;;;3.13;1.95;;;;;;;;;;5085997;27;20020;-68
2024/02/27 09:17:41;;;;;;;2.85;1.92;;;;;;;;;;5102297;27;20073;-65
2024/02/27 09:20:08;;;;;;;1.98;1.88;;;;;;;;;;5088033;28;20027;-65
2024/02/27 09:22:34;;;;;;;2.13;1.77;;;;;;;;;;5080386;28;20374;-71
2024/02/27 09:25:01;;;;;;;1.77;1.58;;;;;;;;;;5099255;28;20027;-64
2024/02/27 09:27:27;;;;;;;5.07;1.73;;;;;;;;;;5102241;27;20036;-65
2024/02/27 09:29:54;;;;;;;1.50;1.40;;;;;;;;;;5107259;27;20088;-69
2024/02/27 09:32:21;;;;;;;2.35;1.92;;;;;;;;;;5107701;27;20091;-70
2024/02/27 09:34:49;;;;;;;4.43;1.73;;;;;;;;;;5105938;28;20034;-70
2024/02/27 09:37:16;;;;;;;2.85;2.13;;;;;;;;;;5085415;28;20047;-69
2024/02/27 09:39:42;;;;;;;3.28;1.65;;;;;;;;;;5102763;28;20027;-67
2024/02/27 09:42:12;;;;;;;1.80;1.70;;;;;;;;;;5084994;28;20416;-67
2024/02/27 09:44:42;;;;;;;1.92;1.83;;;;;;;;;;5092265;28;20561;-67
2024/02/27 09:47:08;;;;;;;3.45;2.00;;;;;;;;;;5103887;27;20055;-67
2024/02/27 09:49:41;;;;;;;4.45;2.63;;;;;;;;;;5104684;28;20027;-68
2024/02/27 09:52:10;;;;;;;6.95;2.00;;;;;;;;;;5084332;28;20521;-68
2024/02/27 09:54:37;;;;;;;3.83;1.90;;;;;;;;;;5109236;28;20545;-65
2024/02/27 09:57:07;;;;;;;2.33;1.70;;;;;;;;;;5104251;27;20118;-68
2024/02/27 09:59:33;;;;;;;6.68;3.28;;;;;;;;;;5104404;27;20142;-66
2024/02/27 10:02:06;;;;;;;5.70;3.33;;;;;;;;;;5101196;27;20028;-65
2024/02/27 10:04:34;;;;;;;5.95;2.97;;;;;;;;;;5081858;28;20088;-64
2024/02/27 10:07:01;;;;;;;5.07;2.78;;;;;;;;;;5099834;27;20023;-64
2024/02/27 10:09:28;;;;;;;6.65;2.28;;;;;;;;;;5098347;28;20035;-64
2024/02/27 10:11:54;;;;;;;3.70;2.30;;;;;;;;;;5105854;27;21070;-64
2024/02/27 10:14:31;;;;;;;4.60;1.90;;;;;;;;;;5088539;28;20046;-64
2024/02/27 10:16:58;;;;;;;3.10;1.80;;;;;;;;;;5076412;27;20023;-68
2024/02/27 10:19:28;;;;;;;6.25;1.92;;;;;;;;;;5095594;28;20024;-64
2024/02/27 10:21:55;;;;;;;2.00;1.80;;;;;;;;;;5101074;27;20055;-64
2024/02/27 10:24:23;;;;;;;3.85;2.63;;;;;;;;;;5073195;28;20036;-64
2024/02/27 10:26:55;;;;;;;1.77;1.67;;;;;;;;;;5099013;27;20039;-64
2024/02/27 10:29:26;;;;;;;2.45;2.25;;;;;;;;;;5095901;28;21556;-63
2024/02/27 10:31:52;;;;;;;1.90;1.70;;;;;;;;;;5093795;27;20468;-64
2024/02/27 10:34:18;;;;;;;4.18;1.70;;;;;;;;;;5080502;28;20027;-65
2024/02/27 10:36:44;;;;;;;5.28;1.92;;;;;;;;;;5097405;28;20059;-64
2024/02/27 10:39:11;;;;;;;1.70;1.60;;;;;;;;;;5097607;27;20074;-64
2024/02/27 10:41:40;;;;;;;3.40;1.60;;;;;;;;;;5103299;28;20038;-64
2024/02/27 10:44:10;;;;;;;5.35;2.08;;;;;;;;;;5105046;27;20035;-68
2024/02/27 10:46:39;;;;;;;4.00;1.90;;;;;;;;;;5098624;28;20102;-64
2024/02/27 10:49:05;;;;;;;5.88;2.70;;;;;;;;;;5105774;28;20035;-65
2024/02/27 10:51:32;;;;;;;2.75;2.22;;;;;;;;;;5103579;28;20028;-65
2024/02/27 10:54:03;;;;;;;2.53;1.80;;;;;;;;;;5102970;28;20472;-65
2024/02/27 10:56:30;;;;;;;2.55;1.67;;;;;;;;;;5102431;28;20023;-65
2024/02/27 10:58:56;;;;;;;2.28;2.00;;;;;;;;;;5103835;28;20066;-64
2024/02/27 11:01:23;;;;;;;3.22;1.75;;;;;;;;;;5106289;28;20640;-65
2024/02/27 11:03:57;;;;;;;2.00;1.73;;;;;;;;;;5103990;28;20830;-66
2024/02/27 11:06:29;;;;;;;2.55;1.75;;;;;;;;;;5082677;28;20042;-66
2024/02/27 11:09:03;;;;;;;5.65;2.03;;;;;;;;;;5103817;28;20036;-66
2024/02/27 11:11:33;;;;;;;1.87;1.77;;;;;;;;;;5098355;28;20019;-65
2024/02/27 11:14:04;;;;;;;1.70;1.60;;;;;;;;;;5102095;28;20389;-67
2024/02/27 11:16:32;;;;;;;2.15;1.95;;;;;;;;;;5100430;28;20028;-67
2024/02/27 11:19:07;;;;;;;2.53;1.85;;;;;;;;;;5104736;28;20071;-66
2024/02/27 11:21:36;;;;;;;1.95;1.80;;;;;;;;;;5102675;28;20049;-68
2024/02/27 11:24:03;;;;;;;2.00;1.80;;;;;;;;;;5100535;28;20036;-66
2024/02/27 11:26:30;;;;;;;2.42;1.60;;;;;;;;;;5101704;28;20031;-67
2024/02/27 11:28:57;;;;;;;4.70;2.08;;;;;;;;;;5086098;28;20031;-66
2024/02/27 11:31:24;;;;;;;3.85;2.30;;;;;;;;;;5101440;28;20032;-65
2024/02/27 11:33:53;;;;;;;3.88;2.00;;;;;;;;;;5105670;28;20131;-65
2024/02/27 11:36:20;;;;;;;1.92;1.75;;;;;;;;;;5099519;28;20453;-66
2024/02/27 11:38:47;;;;;;;1.80;1.70;;;;;;;;;;5102923;28;20378;-66
2024/02/27 11:41:17;;;;;;;3.97;1.70;;;;;;;;;;5099155;28;20480;-66
2024/02/27 11:43:46;;;;;;;1.65;1.45;;;;;;;;;;5103127;28;20020;-65
2024/02/27 11:46:27;;;;;;;1.70;1.60;;;;;;;;;;5098595;28;20121;-66
2024/02/27 11:48:54;;;;;;;4.55;1.95;;;;;;;;;;5104652;28;20031;-66
2024/02/27 11:51:20;;;;;;;1.90;1.80;;;;;;;;;;5087509;28;20031;-67
2024/02/27 11:53:53;;;;;;;1.70;1.60;;;;;;;;;;5103728;28;20031;-70
2024/02/27 11:56:19;;;;;;;1.70;1.60;;;;;;;;;;5100436;27;20149;-65
2024/02/27 11:58:48;;;;;;;2.35;1.85;;;;;;;;;;5086017;28;20816;-67
2024/02/27 12:01:15;;;;;;;2.63;1.50;;;;;;;;;;5087656;28;20036;-67
2024/02/27 12:03:44;;;;;;;2.65;2.00;;;;;;;;;;5081413;28;20087;-67
2024/02/27 12:06:11;;;;;;;4.15;1.88;;;;;;;;;;5096655;27;20328;-67
2024/02/27 12:08:47;;;;;;;2.25;1.90;;;;;;;;;;5098253;27;20165;-66
2024/02/27 12:11:13;;;;;;;;;;;;;;;;;;5098457;27;20475;-68
2024/02/27 12:13:39;;;;;;;;;;;;;;;;;;5104774;27;20014;-68
2024/02/27 12:16:05;;;;;;;15.27;2.70;;;;;;;;;;5073226;28;19980;-68
2024/02/27 12:18:31;;;;;;;8.45;2.67;;;;;;;;;;5100728;27;20150;-68
2024/02/27 12:21:00;;;;;;;22.88;3.28;;;;;;;;;;5079246;28;21045;-67
2024/02/27 12:23:28;;;;;;;9.38;3.17;;;;;;;;;;5103350;27;20028;-68
2024/02/27 12:25:54;;;;;;;13.10;4.28;;;;;;;;;;5090697;28;21345;-68
2024/02/27 12:28:21;;;;;;;25.23;3.42;;;;;;;;;;5099557;28;20027;-68
2024/02/27 12:30:50;;;;;;;13.55;3.50;;;;;;;;;;5095619;28;20043;-68
2024/02/27 12:33:17;;;;;;;6.03;3.15;;;;;;;;;;5091891;28;20027;-68
2024/02/27 12:35:44;;;;;;;9.52;3.50;;;;;;;;;;5097349;28;20047;-68
2024/02/27 12:38:10;;;;;;;9.75;2.65;;;;;;;;;;5097925;27;20453;-68
2024/02/27 12:40:36;;;;;;;9.80;3.25;;;;;;;;;;5097260;27;20024;-69
2024/02/27 12:43:02;;;;;;;12.07;3.03;;;;;;;;;;5096694;27;20030;-69
2024/02/27 12:45:32;;;;;;;8.80;3.20;;;;;;;;;;5096812;28;20086;-69
2024/02/27 12:47:58;;;;;;;4.13;2.50;;;;;;;;;;5100178;27;20042;-69
2024/02/27 12:50:27;;;;;;;9.95;3.30;;;;;;;;;;5076446;28;20028;-69
2024/02/27 12:52:56;;;;;;;9.90;3.42;;;;;;;;;;5091423;27;20032;-69
2024/02/27 12:55:22;;;;;;;7.85;3.22;;;;;;;;;;5078696;28;20028;-68
2024/02/27 12:57:52;;;;;;;10.98;3.45;;;;;;;;;;5091955;27;20110;-68
2024/02/27 13:00:18;;;;;;;17.83;3.63;;;;;;;;;;5094276;27;20043;-68
2024/02/27 13:02:44;;;;;;;13.95;3.63;;;;;;;;;;5078935;28;20171;-69
2024/02/27 13:05:11;;;;;;;16.15;3.13;;;;;;;;;;5094191;27;20032;-68
2024/02/27 13:07:39;;;;;;;11.82;3.53;;;;;;;;;;5093236;27;20551;-68
2024/02/27 13:10:05;;;;;;;6.03;2.60;;;;;;;;;;5097029;27;20035;-69
2024/02/27 13:12:31;;;;;;;12.15;3.80;;;;;;;;;;5090098;28;20032;-69
2024/02/27 13:15:00;;;;;;;10.13;2.70;;;;;;;;;;5097276;28;20084;-68
2024/02/27 13:17:26;;;;;;;6.18;3.03;;;;;;;;;;5075945;28;20032;-68
2024/02/27 13:19:53;;;;;;;13.73;3.55;;;;;;;;;;5072475;28;20027;-68
2024/02/27 13:22:19;;;;;;;13.13;3.28;;;;;;;;;;5078442;28;20435;-69
2024/02/27 13:24:47;;;;;;;8.63;3.03;;;;;;;;;;5076619;28;20515;-68
2024/02/27 13:27:13;;;;;;;11.80;3.58;;;;;;;;;;5093206;28;20107;-68
2024/02/27 13:29:40;;;;;;;8.63;2.95;;;;;;;;;;5097807;27;20020;-68
2024/02/27 13:32:06;;;;;;;9.15;3.38;;;;;;;;;;5095708;28;20035;-68
2024/02/27 13:34:32;;;;;;;9.55;3.72;;;;;;;;;;5078768;28;20050;-67
2024/02/27 13:36:59;;;;;;;12.18;3.17;;;;;;;;;;5099735;27;20130;-67
2024/02/27 13:39:25;;;;;;;11.93;3.00;;;;;;;;;;5076614;28;21039;-67
2024/02/27 13:41:51;;;;;;;22.90;4.35;;;;;;;;;;5087979;27;20374;-68
2024/02/27 13:44:19;;;;;;;15.98;3.72;;;;;;;;;;5100636;27;20032;-67
2024/02/27 13:46:45;;;;;;;9.07;2.95;;;;;;;;;;5081481;27;20036;-66
2024/02/27 13:49:19;;;;;;;13.07;3.65;;;;;;;;;;5101002;27;20108;-67
2024/02/27 13:51:45;;;;;;;9.93;3.47;;;;;;;;;;5099260;28;20023;-67
2024/02/27 13:54:12;;;;;;;19.65;4.38;;;;;;;;;;5099765;27;20095;-67
2024/02/27 13:56:42;;;;;;;10.32;4.18;;;;;;;;;;5081777;28;20031;-69
2024/02/27 13:59:08;;;;;;;10.75;3.00;;;;;;;;;;5104405;27;20039;-67
2024/02/27 14:01:34;;;;;;;9.32;3.70;;;;;;;;;;5105864;27;20016;-66
2024/02/27 14:04:01;;;;;;;17.23;3.65;;;;;;;;;;5088165;28;20102;-72
2024/02/27 14:06:27;;;;;;;8.18;3.20;;;;;;;;;;5104444;27;20023;-68
2024/02/27 14:09:01;;;;;;;10.52;3.55;;;;;;;;;;5102218;28;20050;-67
2024/02/27 14:11:31;;;;;;;6.40;3.08;;;;;;;;;;5098156;28;20039;-68
2024/02/27 14:14:06;;;;;;;8.77;3.30;;;;;;;;;;5100710;28;20043;-70
2024/02/27 14:16:32;;;;;;;14.63;3.45;;;;;;;;;;5096564;27;20074;-67
2024/02/27 14:18:59;;;;;;;12.05;3.35;;;;;;;;;;5098893;27;20031;-68
2024/02/27 14:21:27;;;;;;;12.25;4.20;;;;;;;;;;5098205;28;20118;-67
2024/02/27 14:23:56;;;;;;;17.75;5.63;;;;;;;;;;5084500;28;20393;-68
2024/02/27 14:26:23;;;;;;;11.77;4.05;;;;;;;;;;5096750;27;20522;-68
2024/02/27 14:28:49;;;;;;;11.32;3.80;;;;;;;;;;5078631;28;20032;-68
2024/02/27 14:31:15;;;;;;;10.43;2.65;;;;;;;;;;5098716;28;20553;-67
2024/02/27 14:33:41;;;;;;;7.32;2.92;;;;;;;;;;5084840;27;20030;-68
2024/02/27 14:36:07;;;;;;;10.15;3.33;;;;;;;;;;5099741;27;20039;-68
2024/02/27 14:38:34;;;;;;;9.80;3.70;;;;;;;;;;5103141;28;20028;-67
2024/02/27 14:41:00;;;;;;;7.75;3.65;;;;;;;;;;5101111;28;20456;-68
2024/02/27 14:43:26;;;;;;;10.02;5.10;;;;;;;;;;5098693;28;20084;-69